»·PEaware :: SKY43 KMMV-KTMK

SKY43 :: KMMV-KTMK

FLIGHT INFORMATION

Flight Status: Arrived
Operator:
Sky High Charters
More flights by this operator :: More flights under this callsign
Pilot: Justin C. (30559)
Aircraft: BEECH AIRCRAFT A90-E90 KING AIR
(BE9L)
More flights by this aircraft type
Origin: KMMV McMinnville Mun
United States
Destination: KTMK Tillamook
United States
More flights between these airports :: More routes between these airports
Route: UBG JEQEF
File this flight plan on PilotEdge
Remarks: ODP OT OF KMMV
Altitude:
(Current/Filed)
6,000ft
Speed:
(Current/Filed)
180kts
Departed: 07-Aug-20 09:29 AM
Arrived: 07-Aug-20 10:01 AM
Distance/Time
Traveled:
32nm/0:32
Distance/Time
To Go:
Arrived

Flight Plot

Page will automatically refresh every two minutes.

Flight plan parsing failed; only flown route is shown


Map Options




Map Legend


Flown Route
Filed Route
Departure Airport
Arrival Airport
Navaid (VOR, NDB)
Fix

Horizontal Profiles

Position Reports

Time Latitude Longitude Heading Altitude Ground
Speed
07-Aug-20 09:08 45.198832 -123.138597 120 149ft 0kts
07-Aug-20 09:09 45.198832 -123.138597 120 149ft 0kts
07-Aug-20 09:10 45.198832 -123.138597 120 149ft 0kts
07-Aug-20 09:11 45.198832 -123.138597 120 149ft 0kts
07-Aug-20 09:12 45.198832 -123.138597 120 149ft 0kts
07-Aug-20 09:14 45.198832 -123.138597 120 149ft 0kts
07-Aug-20 09:15 45.198832 -123.138597 120 149ft 0kts
07-Aug-20 09:16 45.198832 -123.138597 120 149ft 0kts
07-Aug-20 09:17 45.198832 -123.138597 120 149ft 0kts
07-Aug-20 09:18 45.198832 -123.138597 120 149ft 0kts
07-Aug-20 09:19 45.198832 -123.138597 120 149ft 0kts
07-Aug-20 09:20 45.198832 -123.138597 120 149ft 0kts
07-Aug-20 09:21 45.198832 -123.138596 120 149ft 0kts
07-Aug-20 09:22 45.198832 -123.138596 120 149ft 0kts
07-Aug-20 09:23 45.198832 -123.138596 120 149ft 0kts
07-Aug-20 09:24 45.198688 -123.138184 111 150ft 6kts
07-Aug-20 09:25 45.199269 -123.134607 57 151ft 12kts
07-Aug-20 09:26 45.200048 -123.132216 95 153ft 0kts
07-Aug-20 09:27 45.200045 -123.132167 95 153ft 1kts
07-Aug-20 09:28 45.199212 -123.131821 237 154ft 30kts
07-Aug-20 09:29 45.184384 -123.168156 229 1467ft 125kts
07-Aug-20 09:30 45.161053 -123.148430 115 3475ft 118kts
07-Aug-20 09:31 45.147454 -123.108111 85 5267ft 114kts
07-Aug-20 09:32 45.173198 -123.108827 326 6015ft 155kts
07-Aug-20 09:32 45.207084 -123.131868 16 6001ft 175kts
07-Aug-20 09:34 45.251865 -123.079312 33 6003ft 182kts
07-Aug-20 09:34 45.286678 -123.044552 33 6005ft 182kts
07-Aug-20 09:35 45.328071 -123.003293 33 6006ft 181kts
07-Aug-20 09:37 45.371068 -123.023938 301 6005ft 183kts
07-Aug-20 09:37 45.391788 -123.077216 300 5983ft 183kts
07-Aug-20 09:38 45.416418 -123.140661 300 5981ft 182kts
07-Aug-20 09:39 45.440986 -123.204084 300 5981ft 182kts
07-Aug-20 09:40 45.465518 -123.267560 300 5981ft 182kts
07-Aug-20 09:41 45.478840 -123.302614 306 5794ft 93kts
07-Aug-20 09:42 45.490436 -123.341765 288 5696ft 113kts
07-Aug-20 09:43 45.496730 -123.384302 282 5970ft 122kts
07-Aug-20 09:44 45.517974 -123.425734 324 5982ft 140kts
07-Aug-20 09:45 45.543440 -123.471210 302 5989ft 151kts
07-Aug-20 09:46 45.563834 -123.523975 292 5983ft 140kts
07-Aug-20 09:47 45.586438 -123.582643 300 6001ft 190kts
07-Aug-20 09:48 45.609543 -123.643468 299 5917ft 187kts
07-Aug-20 09:49 45.635039 -123.710378 299 5576ft 186kts
07-Aug-20 09:50 45.658373 -123.771753 299 5958ft 169kts
07-Aug-20 09:51 45.652581 -123.833760 249 5792ft 148kts
07-Aug-20 09:52 45.636526 -123.884844 248 5098ft 142kts
07-Aug-20 09:53 45.617935 -123.934098 205 4495ft 131kts
07-Aug-20 09:54 45.583137 -123.920553 155 3840ft 136kts
07-Aug-20 09:55 45.548901 -123.898795 155 2979ft 135kts
07-Aug-20 09:56 45.517240 -123.878458 155 2698ft 124kts
07-Aug-20 09:57 45.488436 -123.860515 155 1944ft 108kts
07-Aug-20 09:58 45.461831 -123.843074 154 1328ft 105kts
07-Aug-20 09:59 45.435703 -123.826412 158 387ft 99kts
07-Aug-20 10:00 45.417111 -123.814414 174 30ft 11kts
07-Aug-20 10:01 45.419082 -123.814481 332 30ft 20kts
07-Aug-20 10:02 45.421269 -123.813869 113 31ft 5kts
07-Aug-20 10:03 45.421477 -123.813607 2 32ft 4kts
07-Aug-20 10:04 45.422718 -123.813732 351 33ft 15kts
07-Aug-20 10:05 45.422866 -123.813764 351 32ft 0kts
07-Aug-20 10:06 45.422866 -123.813764 351 32ft 0kts
07-Aug-20 10:07 45.422871 -123.813765 351 32ft 0kts
07-Aug-20 10:09 45.418158 -123.818553 74 26ft 0kts
07-Aug-20 10:10 45.418158 -123.818553 74 26ft 0kts
07-Aug-20 10:11 45.418158 -123.818553 74 26ft 0kts

Navigation Log

Ident Type
Flight plan parsing failed, navigation log unavailable